• Join FlightAware (Why Join?)
  • Login
  • US Flag 
06:54PM EST


 

Airport Tracker/Info


-or-


 

Live Flight TrackerFlight Track Log ✈ FIN664 ✈ 20-Aug-2014 ✈ EKCH / CPH - EFHK / HEL

Flight Track Log - Related Links

Times and Time Zones

All times are in EDT time to prevent confusion due to time zone crossing. See the FIN664 flight status page for this flight to view local times or setup timezone preferences in your user account.

Time Position Orientation Groundspeed Altitude Reporting Facility
EDT Latitude Longitude Course Direction KTS MPH feet Rate Location/Type
11:23AM 55.9905 13.4309 49° Northeast  Level Estimated
11:24AM 56.0644 13.5877 50° Northeast  Level Estimated
11:25AM 56.1381 13.7451 50° Northeast  Level Estimated
11:26AM 56.2117 13.9031 50° Northeast  Level Estimated
11:27AM 56.2850 14.0617 50° Northeast  Level Estimated
11:28AM 56.3581 14.2208 50° Northeast  Level Estimated
11:29AM 56.4310 14.3807 50° Northeast  Level Estimated
11:30AM 56.5037 14.5411 51° Northeast  Level Estimated
11:31AM 56.5762 14.7021 51° Northeast  Level Estimated
11:32AM 56.6485 14.8638 51° Northeast  Level Estimated
11:33AM 56.7206 15.0260 51° Northeast  Level Estimated
11:34AM 56.7925 15.1889 51° Northeast  Level Estimated
11:35AM 56.8641 15.3525 51° Northeast  Level Estimated
11:36AM 56.9356 15.5166 51° Northeast  Level Estimated
11:37AM 57.0068 15.6814 52° Northeast  Level Estimated
11:38AM 57.0778 15.8468 52° Northeast  Level Estimated
11:39AM 57.1486 16.0129 52° Northeast  Level Estimated
11:40AM 57.2192 16.1795 52° Northeast  Level Estimated
11:41AM 57.2895 16.3468 52° Northeast  Level Estimated
11:42AM 57.3596 16.5148 52° Northeast  Level Estimated
11:43AM 57.4295 16.6834 52° Northeast  Level Estimated
11:44AM 57.4992 16.8526 52° Northeast  Level Estimated
11:45AM 57.5686 17.0225 53° Northeast  Level Estimated
11:46AM 57.6379 17.1931 53° Northeast  Level Estimated
11:47AM 57.7068 17.3643 53° Northeast  Level Estimated
11:48AM 57.7756 17.5361 53° Northeast  Level Estimated
11:49AM 57.8441 17.7086 53° Northeast  Level Estimated
11:50AM 57.9124 17.8818 53° Northeast  Level Estimated
11:51AM 57.9805 18.0556 54° Northeast  Level Estimated
11:52AM 58.0483 18.2300 54° Northeast  Level Estimated
11:53AM 58.1159 18.4052 54° Northeast  Level Estimated
11:54AM 58.1832 18.5810 54° Northeast  Level Estimated
11:55AM 58.2503 18.7574 54° Northeast  Level Estimated
11:56AM 58.3171 18.9345 54° Northeast  Level Estimated
11:57AM 58.3837 19.1124 54° Northeast  Level Estimated
11:58AM 58.4501 19.2908 55° Northeast  Level Estimated
11:59AM 58.5162 19.4700 55° Northeast  Level Estimated
12:00PM 58.5820 19.6498 55° Northeast  Level Estimated
12:01PM 58.6477 19.8303 55° Northeast  Level Estimated
12:02PM 58.7130 20.0115 55° Northeast  Level Estimated
12:03PM 58.7781 20.1933 55° Northeast  Level Estimated
12:04PM 58.8429 20.3759 55° Northeast  Level Estimated
12:05PM 58.9075 20.5591 56° Northeast  Level Estimated
12:06PM 58.9718 20.7430 56° Northeast  Level Estimated
12:07PM 59.0359 20.9276 56° Northeast  Level Estimated
12:08PM 59.0997 21.1129 56° Northeast  Level Estimated
12:09PM 59.1632 21.2988 56° Northeast  Level Estimated
12:10PM 59.2265 21.4855 56° Northeast  Level Estimated
12:11PM 59.2895 21.6728 57° Northeast  Level Estimated
12:12PM 59.3522 21.8609 57° Northeast  Level Estimated
12:13PM 59.4146 22.0496 57° Northeast  Level Estimated
12:14PM 59.4768 22.2390 57° Northeast  Level Estimated
12:15PM 59.5378 22.4265 57° Northeast  Level Estimated
12:16PM 59.5986 22.6146 57° Northeast  Level Estimated
12:17PM 59.6591 22.8034 58° Northeast  Level Estimated
12:18PM 59.7193 22.9929 58° Northeast  Level Estimated
12:19PM 59.7793 23.1831 58° Northeast  Level Estimated
12:20PM 59.8389 23.3739 58° Northeast  Level Estimated
12:21PM 59.8983 23.5655 58° Northeast  Level Estimated
12:22PM 59.9575 23.7577 58° Northeast  Level Estimated
12:23PM 60.0163 23.9506 59° Northeast  Level Estimated
12:24PM 60.0748 24.1442 59° Northeast  Level Estimated
12:25PM 60.1331 24.3385 59° Northeast  Level Estimated
12:26PM 60.1911 24.5334 59° Northeast  Level Estimated
12:27PM 60.2488 24.7291 59° Northeast  Level Estimated
12:28PM 60.3062 24.9254 59° Northeast  Level Estimated
12:29PM 60.3172 24.9633 60° Northeast  Level Estimated
12:30PM 60.3172 24.9633 North  Level Estimated
12:31PM 60.3172 24.9633 North  Level Estimated
12:32PM 60.3172 24.9633 North  Level Estimated
12:33PM 60.3172 24.9633 North  Level Estimated
12:34PM 60.3172 24.9633 North  Level Estimated
12:35PM 60.3172 24.9633 North  Level Estimated
12:36PM 60.3172 24.9633 North  Level Estimated
12:37PM 60.3172 24.9633 North  Level Estimated
12:38PM 60.3172 24.9633 North  Level Estimated
12:39PM 60.3172 24.9633 North  Level Estimated
12:40PM 60.3172 24.9633 North  Level Estimated